Time;durP1;ratioP1;P1;durP2;ratioP2;P2;SDS_P1;SDS_P2;PMS_P1;PMS_P2;Temp;Humidity;BMP_temperature;BMP_pressure;BME280_temperature;BME280_humidity;BME280_pressure;Samples;Min_cycle;Max_cycle;Signal;HPM_P1;HPM_P2
2024/02/05 00:01:24;;;;;;;1.65;0.25;;;;;;;7.95;100.00;99624.88;5039604;28;20108;-61
2024/02/05 00:03:49;;;;;;;0.17;0.17;;;;;;;7.82;100.00;99613.72;5037274;28;20117;-60
2024/02/05 00:06:15;;;;;;;1.65;0.30;;;;;;;7.74;100.00;99608.31;5032979;28;20029;-60
2024/02/05 00:08:41;;;;;;;0.70;0.30;;;;;;;7.67;100.00;99603.59;5029806;28;20104;-60
2024/02/05 00:11:07;;;;;;;0.93;0.43;;;;;;;7.63;100.00;99591.47;5034318;28;20033;-60
2024/02/05 00:13:32;;;;;;;0.40;0.30;;;;;;;7.60;100.00;99615.22;5041539;28;20021;-61
2024/02/05 00:15:58;;;;;;;0.35;0.30;;;;;;;7.58;100.00;99615.34;5021386;28;20377;-60
2024/02/05 00:18:26;;;;;;;1.15;0.30;;;;;;;7.46;100.00;99617.50;5039668;28;20503;-60
2024/02/05 00:20:52;;;;;;;1.15;0.32;;;;;;;7.44;100.00;99605.19;5041682;28;20025;-60
2024/02/05 00:23:18;;;;;;;0.63;0.43;;;;;;;7.48;100.00;99606.56;5033848;28;20048;-61
2024/02/05 00:25:43;;;;;;;1.90;0.28;;;;;;;7.41;100.00;99606.41;5024260;28;20021;-60
2024/02/05 00:28:10;;;;;;;0.80;0.30;;;;;;;7.40;100.00;99612.78;5030409;28;20017;-61
2024/02/05 00:30:35;;;;;;;0.85;0.20;;;;;;;7.40;100.00;99607.38;5043432;28;20469;-60
2024/02/05 00:33:00;;;;;;;1.60;0.28;;;;;;;7.33;100.00;99605.50;5039160;28;20025;-60
2024/02/05 00:35:26;;;;;;;2.15;0.30;;;;;;;7.33;100.00;99618.97;5032008;28;20018;-60
2024/02/05 00:37:51;;;;;;;0.43;0.20;;;;;;;7.33;100.00;99618.97;5037344;28;20032;-61
2024/02/05 00:40:17;;;;;;;0.43;0.20;;;;;;;7.24;100.00;99640.47;5039521;28;20021;-61
2024/02/05 00:42:43;;;;;;;2.05;0.57;;;;;;;7.25;100.00;99638.63;5037667;28;20495;-61
2024/02/05 00:45:09;;;;;;;0.90;0.40;;;;;;;7.24;100.00;99650.41;5031279;28;20470;-61
2024/02/05 00:47:34;;;;;;;0.40;0.30;;;;;;;7.27;100.00;99649.22;5027593;28;20036;-61
2024/02/05 00:49:59;;;;;;;0.45;0.40;;;;;;;7.32;100.00;99658.50;5034165;28;20033;-60
2024/02/05 00:52:25;;;;;;;0.47;0.47;;;;;;;7.27;100.00;99650.06;5034283;28;20604;-60
2024/02/05 00:54:50;;;;;;;0.57;0.40;;;;;;;7.33;100.00;99649.41;5033487;28;20041;-61
2024/02/05 00:57:16;;;;;;;0.60;0.32;;;;;;;7.31;100.00;99662.22;5017450;28;20037;-60
2024/02/05 00:59:41;;;;;;;0.77;0.47;;;;;;;7.35;100.00;99668.94;5040515;28;20071;-60
2024/02/05 01:02:07;;;;;;;1.10;0.43;;;;;;;7.30;100.00;99667.75;5029515;28;20048;-61
2024/02/05 01:04:34;;;;;;;5.30;0.57;;;;;;;7.23;100.00;99659.47;5035972;28;20053;-61
2024/02/05 01:07:00;;;;;;;0.80;0.50;;;;;;;7.28;100.00;99672.44;5021495;28;20033;-60
2024/02/05 01:09:25;;;;;;;2.08;0.40;;;;;;;7.25;100.00;99676.28;5036904;28;20485;-60
2024/02/05 01:11:51;;;;;;;0.73;0.60;;;;;;;7.33;100.00;99665.56;5033273;28;20144;-59
2024/02/05 01:14:17;;;;;;;0.80;0.50;;;;;;;7.36;100.00;99667.09;5038028;28;20025;-61
2024/02/05 01:16:42;;;;;;;0.95;0.40;;;;;;;7.35;100.00;99665.41;5029208;28;20100;-61
2024/02/05 01:19:08;;;;;;;0.75;0.50;;;;;;;7.37;100.00;99675.03;5035108;28;20040;-61
2024/02/05 01:21:34;;;;;;;0.60;0.40;;;;;;;7.38;100.00;99675.84;5040554;28;20458;-60
2024/02/05 01:23:59;;;;;;;0.90;0.57;;;;;;;7.42;100.00;99669.16;5036134;28;20030;-60
2024/02/05 01:26:25;;;;;;;1.02;0.43;;;;;;;7.39;100.00;99683.78;5025230;28;20024;-60
2024/02/05 01:28:50;;;;;;;1.23;0.70;;;;;;;7.34;100.00;99679.91;5022958;28;20029;-61
2024/02/05 01:31:16;;;;;;;0.60;0.47;;;;;;;7.35;100.00;99689.66;5035376;28;20040;-60
2024/02/05 01:33:41;;;;;;;0.93;0.40;;;;;;;7.42;100.00;99685.31;5037210;28;20025;-61
2024/02/05 01:36:07;;;;;;;4.20;0.73;;;;;;;7.38;100.00;99676.69;5021116;28;20018;-60
2024/02/05 01:38:32;;;;;;;3.03;0.50;;;;;;;7.39;100.00;99674.88;5029089;28;20037;-60
2024/02/05 01:40:59;;;;;;;0.35;0.30;;;;;;;7.32;100.00;99660.38;5026618;28;20029;-60
2024/02/05 01:43:24;;;;;;;1.02;0.50;;;;;;;7.36;100.00;99684.13;5035739;28;20550;-60
2024/02/05 01:45:51;;;;;;;1.58;0.70;;;;;;;7.33;100.00;99670.94;5026867;28;20034;-60
2024/02/05 01:48:21;;;;;;;1.23;0.50;;;;;;;7.39;100.00;99683.78;5029198;28;20061;-60
2024/02/05 01:50:48;;;;;;;1.75;0.70;;;;;;;7.32;100.00;99668.44;5041534;28;20025;-60
2024/02/05 01:53:13;;;;;;;2.92;0.60;;;;;;;7.34;100.00;99666.44;5027725;28;20022;-61
2024/02/05 01:55:40;;;;;;;1.35;0.70;;;;;;;7.29;100.00;99666.91;5031221;28;20105;-61
2024/02/05 01:58:06;;;;;;;1.65;0.57;;;;;;;7.28;100.00;99686.75;5027611;28;20034;-61
2024/02/05 02:00:32;;;;;;;1.15;0.65;;;;;;;7.21;100.00;99673.09;5028340;28;20049;-61
2024/02/05 02:02:58;;;;;;;0.50;0.30;;;;;;;7.28;100.00;99670.59;5024149;28;20104;-61
2024/02/05 02:05:24;;;;;;;2.58;0.70;;;;;;;7.16;100.00;99664.66;5031289;28;20021;-61
2024/02/05 02:07:50;;;;;;;1.27;0.60;;;;;;;7.22;100.00;99688.22;5050039;28;20033;-61
2024/02/05 02:10:16;;;;;;;2.35;0.60;;;;;;;7.18;100.00;99675.28;5041938;28;20108;-61
2024/02/05 02:12:41;;;;;;;1.13;0.47;;;;;;;7.16;100.00;99683.50;5033351;28;20116;-61
2024/02/05 02:15:08;;;;;;;0.63;0.50;;;;;;;7.14;100.00;99674.72;5020244;28;20532;-61
2024/02/05 02:17:38;;;;;;;1.17;0.60;;;;;;;7.12;100.00;99682.13;5029268;28;20053;-61
2024/02/05 02:20:05;;;;;;;2.13;0.60;;;;;;;7.12;100.00;99686.66;5036825;28;20030;-61
2024/02/05 02:22:39;;;;;;;1.98;0.60;;;;;;;7.18;100.00;99686.03;5030210;28;20388;-61
2024/02/05 02:25:06;;;;;;;0.73;0.52;;;;;;;7.16;100.00;99682.66;5041404;28;20026;-61
2024/02/05 02:27:32;;;;;;;1.00;0.40;;;;;;;7.09;100.00;99698.59;5024139;28;20030;-61
2024/02/05 02:29:59;;;;;;;1.45;0.70;;;;;;;7.10;100.00;99688.66;5033111;28;20056;-61
2024/02/05 02:32:43;;;;;;;2.15;0.85;;;;;;;7.06;100.00;99681.94;5026440;28;20105;-61
2024/02/05 02:35:37;;;;;;;1.42;0.55;;;;;;;7.07;100.00;99684.44;5031157;28;20028;-61
2024/02/05 02:38:09;;;;;;;2.28;0.57;;;;;;;7.00;100.00;99678.88;5046640;28;20025;-61
2024/02/05 02:40:37;;;;;;;3.35;0.70;;;;;;;7.00;100.00;99678.03;5035906;28;20028;-61
2024/02/05 02:43:05;;;;;;;0.88;0.55;;;;;;;7.03;100.00;99675.00;5034395;28;20028;-61
2024/02/05 02:45:31;;;;;;;3.45;0.63;;;;;;;7.03;100.00;99675.84;5025856;28;20049;-61
2024/02/05 02:47:56;;;;;;;1.08;0.50;;;;;;;7.06;100.00;99677.38;5035348;28;20028;-61
2024/02/05 02:50:22;;;;;;;4.30;0.68;;;;;;;7.01;100.00;99679.69;5028949;28;20084;-61
2024/02/05 02:52:47;;;;;;;1.80;0.60;;;;;;;7.02;100.00;99679.56;5024649;28;20021;-61
2024/02/05 02:55:14;;;;;;;2.70;0.80;;;;;;;6.93;100.00;99677.81;5039933;28;20057;-61
2024/02/05 02:57:39;;;;;;;3.35;0.95;;;;;;;7.00;100.00;99699.56;5037230;28;20029;-61
2024/02/05 03:00:08;;;;;;;2.42;0.95;;;;;;;7.07;100.00;99692.50;5034174;28;20037;-61
2024/02/05 03:02:34;;;;;;;1.92;0.60;;;;;;;7.06;100.00;99688.13;5021965;28;20113;-61
2024/02/05 03:05:00;;;;;;;1.30;0.60;;;;;;;7.06;100.00;99700.75;5027882;28;20469;-61
2024/02/05 03:07:26;;;;;;;1.77;0.60;;;;;;;7.06;100.00;99690.84;5033652;28;20072;-61
2024/02/05 03:09:53;;;;;;;2.25;0.65;;;;;;;7.12;100.00;99692.88;5059494;28;20032;-61
2024/02/05 03:12:19;;;;;;;3.55;0.80;;;;;;;7.10;100.00;99692.22;5026180;28;20057;-61
2024/02/05 03:14:44;;;;;;;1.50;0.57;;;;;;;7.17;100.00;99705.84;5033831;28;20405;-61
2024/02/05 03:17:10;;;;;;;4.40;0.68;;;;;;;7.12;100.00;99698.25;5036471;28;20109;-61
2024/02/05 03:19:35;;;;;;;2.53;0.52;;;;;;;7.18;100.00;99683.34;5037653;28;20033;-61
2024/02/05 03:22:00;;;;;;;1.30;0.50;;;;;;;7.25;100.00;99690.59;5037179;28;20064;-61
2024/02/05 03:24:26;;;;;;;1.00;0.50;;;;;;;7.21;100.00;99689.25;5036573;28;20048;-61
2024/02/05 03:26:52;;;;;;;1.10;0.50;;;;;;;7.26;100.00;99667.25;5041270;28;20056;-61
2024/02/05 03:29:18;;;;;;;1.25;0.63;;;;;;;7.24;100.00;99666.56;5036641;28;20053;-61
2024/02/05 03:31:43;;;;;;;3.95;0.57;;;;;;;7.22;100.00;99657.78;5046947;28;20036;-61
2024/02/05 03:34:09;;;;;;;0.82;0.30;;;;;;;7.28;100.00;99661.69;5029528;28;20034;-61
2024/02/05 03:36:34;;;;;;;1.65;0.40;;;;;;;7.27;100.00;99658.16;5031787;28;20033;-61
2024/02/05 03:39:00;;;;;;;0.98;0.50;;;;;;;7.28;100.00;99678.66;5032697;28;20026;-61
2024/02/05 03:41:25;;;;;;;1.20;0.45;;;;;;;7.30;100.00;99662.38;5038650;28;20438;-61
2024/02/05 03:43:51;;;;;;;1.13;0.43;;;;;;;7.31;100.00;99669.41;5033047;28;20090;-61
2024/02/05 03:46:17;;;;;;;0.63;0.40;;;;;;;7.32;100.00;99646.91;5041388;28;20021;-61
2024/02/05 03:48:55;;;;;;;1.02;0.45;;;;;;;7.35;100.00;99660.03;5038501;28;20423;-61
2024/02/05 03:51:21;;;;;;;2.33;0.47;;;;;;;7.32;100.00;99654.97;5036208;28;20063;-61
2024/02/05 03:53:48;;;;;;;1.13;0.50;;;;;;;7.43;100.00;99649.28;5033866;28;20562;-61
2024/02/05 03:56:18;;;;;;;1.63;0.50;;;;;;;7.35;100.00;99660.88;5037907;28;20021;-61
2024/02/05 03:58:44;;;;;;;0.75;0.30;;;;;;;7.47;100.00;99658.75;5035060;28;20086;-61
2024/02/05 04:01:10;;;;;;;1.40;0.38;;;;;;;7.52;100.00;99661.81;5033402;28;20025;-61
2024/02/05 04:03:35;;;;;;;1.45;0.57;;;;;;;7.44;100.00;99661.75;5026713;28;20365;-61
2024/02/05 04:06:00;;;;;;;1.60;0.40;;;;;;;7.52;100.00;99664.50;5039463;28;20489;-61
2024/02/05 04:08:26;;;;;;;0.75;0.40;;;;;;;7.50;100.00;99658.41;5031936;28;20021;-61
2024/02/05 04:10:51;;;;;;;1.08;0.30;;;;;;;7.49;100.00;99672.03;5046041;28;20075;-61
2024/02/05 04:13:17;;;;;;;0.52;0.30;;;;;;;7.46;100.00;99659.72;5026361;28;20463;-61
2024/02/05 04:15:43;;;;;;;0.93;0.30;;;;;;;7.57;100.00;99670.22;5045185;28;20083;-61
2024/02/05 04:18:09;;;;;;;1.75;0.40;;;;;;;7.58;100.00;99677.28;5024391;28;20029;-61
2024/02/05 04:20:35;;;;;;;2.15;0.40;;;;;;;7.59;100.00;99678.13;5032858;28;20033;-61
2024/02/05 04:23:00;;;;;;;0.60;0.38;;;;;;;7.54;100.00;99694.78;5035206;28;20136;-61
2024/02/05 04:25:26;;;;;;;2.08;0.40;;;;;;;7.47;100.00;99691.91;5034886;28;20024;-61
2024/02/05 04:27:51;;;;;;;0.38;0.30;;;;;;;7.57;100.00;99702.56;5020800;28;20036;-61
2024/02/05 04:30:17;;;;;;;1.42;0.40;;;;;;;7.55;100.00;99695.63;5033655;28;20035;-62
2024/02/05 04:32:43;;;;;;;1.00;0.40;;;;;;;7.62;100.00;99702.91;5030766;28;20029;-61
2024/02/05 04:35:08;;;;;;;0.98;0.20;;;;;;;7.61;100.00;99703.91;5029587;28;20026;-61
2024/02/05 04:37:34;;;;;;;2.20;0.30;;;;;;;7.54;100.00;99700.16;5020329;28;20033;-61
2024/02/05 04:40:00;;;;;;;3.65;0.40;;;;;;;7.56;100.00;99700.84;5032827;28;20436;-61
2024/02/05 04:42:25;;;;;;;1.23;0.35;;;;;;;7.63;100.00;99698.38;5032810;28;20040;-62
2024/02/05 04:44:50;;;;;;;2.38;0.60;;;;;;;7.60;100.00;99699.53;5035952;28;20040;-61
2024/02/05 04:47:16;;;;;;;0.28;0.17;;;;;;;7.62;100.00;99705.59;5035566;28;20108;-61
2024/02/05 04:49:47;;;;;;;0.63;0.20;;;;;;;7.60;100.00;99698.69;5029218;28;20143;-61
2024/02/05 04:52:12;;;;;;;0.17;0.17;;;;;;;7.67;100.00;99703.25;5033829;28;20031;-61
2024/02/05 04:54:38;;;;;;;3.53;0.47;;;;;;;7.63;100.00;99717.22;5035470;28;20029;-62
2024/02/05 04:57:03;;;;;;;0.75;0.38;;;;;;;7.65;100.00;99702.56;5040098;28;20056;-61
2024/02/05 04:59:29;;;;;;;0.95;0.30;;;;;;;7.65;100.00;99702.56;5027662;28;20479;-61
2024/02/05 05:01:55;;;;;;;3.28;0.40;;;;;;;7.75;100.00;99701.59;5034632;28;20025;-60
2024/02/05 05:04:22;;;;;;;0.50;0.20;;;;;;;7.79;100.00;99700.28;5036126;28;20060;-60
2024/02/05 05:06:47;;;;;;;0.65;0.38;;;;;;;7.73;100.00;99695.50;5036384;28;20021;-60
2024/02/05 05:09:13;;;;;;;0.77;0.15;;;;;;;7.66;100.00;99695.34;5032045;28;20552;-60
2024/02/05 05:11:38;;;;;;;3.05;0.30;;;;;;;7.78;100.00;99710.22;5022666;28;20021;-60
2024/02/05 05:14:04;;;;;;;1.77;0.30;;;;;;;7.84;100.00;99706.00;5030486;28;20159;-60
2024/02/05 05:16:30;;;;;;;4.25;0.63;;;;;;;7.79;100.00;99716.44;5022474;28;20083;-60
2024/02/05 05:19:01;;;;;;;3.70;0.43;;;;;;;7.77;100.00;99713.06;5160651;22;20040;-64
2024/02/05 05:21:26;;;;;;;0.30;0.20;;;;;;;7.84;100.00;99719.47;5048143;28;20482;-64
2024/02/05 05:23:52;;;;;;;0.68;0.32;;;;;;;7.88;100.00;99704.66;5043522;28;20028;-64
2024/02/05 05:26:21;;;;;;;0.43;0.20;;;;;;;7.82;100.00;99689.16;5048679;28;20473;-64
2024/02/05 05:28:48;;;;;;;0.50;0.20;;;;;;;7.79;100.00;99701.09;5047808;28;20029;-64
2024/02/05 05:31:16;;;;;;;5.38;0.45;;;;;;;7.77;100.00;99694.19;5051143;28;20425;-64
2024/02/05 05:33:43;;;;;;;0.38;0.17;;;;;;;7.78;100.00;99704.81;5051193;28;20025;-63
2024/02/05 05:36:09;;;;;;;0.10;0.10;;;;;;;7.81;100.00;99695.56;5048305;28;20021;-64
2024/02/05 05:38:34;;;;;;;1.48;0.20;;;;;;;7.88;100.00;99707.34;5048884;28;20545;-64
2024/02/05 05:41:00;;;;;;;0.70;0.30;;;;;;;7.88;100.00;99702.81;5050021;28;20040;-63
2024/02/05 05:43:25;;;;;;;0.60;0.30;;;;;;;7.85;100.00;99699.59;5050375;28;20063;-63
2024/02/05 05:45:51;;;;;;;0.38;0.20;;;;;;;7.89;100.00;99692.88;5044502;28;20043;-64
2024/02/05 05:48:16;;;;;;;0.75;0.30;;;;;;;7.91;100.00;99709.72;5039654;28;20379;-64
2024/02/05 05:50:42;;;;;;;2.40;0.20;;;;;;;7.80;100.00;99697.38;5048996;28;20079;-63
2024/02/05 05:53:08;;;;;;;2.40;0.22;;;;;;;7.87;100.00;99682.28;5049147;28;20029;-63
2024/02/05 05:55:33;;;;;;;0.38;0.28;;;;;;;7.92;100.00;99700.63;5054622;28;20112;-63
2024/02/05 05:58:00;;;;;;;0.20;0.17;;;;;;;7.95;100.00;99689.53;5046607;28;20071;-63
2024/02/05 06:00:25;;;;;;;0.45;0.20;;;;;;;7.90;100.00;99681.09;5051373;28;20049;-63
2024/02/05 06:02:51;;;;;;;0.30;0.25;;;;;;;7.95;100.00;99694.91;5046672;28;20108;-63
2024/02/05 06:05:16;;;;;;;0.55;0.20;;;;;;;7.98;100.00;99691.88;5048077;28;20013;-63
2024/02/05 06:07:43;;;;;;;0.22;0.20;;;;;;;7.98;100.00;99689.19;5045655;28;20106;-63
2024/02/05 06:10:09;;;;;;;0.50;0.22;;;;;;;8.03;100.00;99686.84;5050717;28;20199;-63
2024/02/05 06:12:34;;;;;;;1.75;0.35;;;;;;;8.04;100.00;99699.34;5048129;28;20103;-63
2024/02/05 06:14:59;;;;;;;0.47;0.20;;;;;;;8.01;100.00;99698.81;5044289;28;20120;-63
2024/02/05 06:17:25;;;;;;;0.90;0.22;;;;;;;7.97;100.00;99695.59;5052291;28;20046;-63
2024/02/05 06:19:50;;;;;;;1.95;0.30;;;;;;;8.12;100.00;99703.88;5043421;28;20033;-63
2024/02/05 06:22:16;;;;;;;0.47;0.20;;;;;;;8.05;100.00;99705.56;5047889;28;20083;-63
2024/02/05 06:24:41;;;;;;;1.27;0.35;;;;;;;8.07;100.00;99701.69;5051958;28;20040;-63
2024/02/05 06:27:07;;;;;;;0.75;0.25;;;;;;;8.08;100.00;99700.66;5039026;28;20029;-63
2024/02/05 06:29:33;;;;;;;1.25;0.32;;;;;;;8.12;100.00;99701.19;5041012;28;20039;-63
2024/02/05 06:31:58;;;;;;;0.90;0.30;;;;;;;8.09;100.00;99691.56;5044875;28;20094;-62
2024/02/05 06:34:24;;;;;;;0.88;0.35;;;;;;;8.07;100.00;99687.38;5044595;28;20140;-63
2024/02/05 06:36:50;;;;;;;0.25;0.15;;;;;;;8.01;100.00;99691.56;5043583;28;20029;-63
2024/02/05 06:39:15;;;;;;;2.20;0.45;;;;;;;8.07;100.00;99682.81;5046440;28;20025;-63
2024/02/05 06:41:41;;;;;;;0.93;0.45;;;;;;;8.12;100.00;99695.78;5048779;28;20071;-63
2024/02/05 06:44:06;;;;;;;0.82;0.32;;;;;;;8.15;100.00;99689.22;5050000;28;20424;-63
2024/02/05 06:46:32;;;;;;;1.35;0.30;;;;;;;8.08;100.00;99694.44;5052116;28;20025;-63
2024/02/05 06:48:57;;;;;;;2.63;0.47;;;;;;;8.19;100.00;99699.50;5055255;28;20037;-63
2024/02/05 06:51:23;;;;;;;1.83;0.30;;;;;;;8.17;100.00;99698.00;5056750;28;20027;-63
2024/02/05 06:53:48;;;;;;;2.28;0.50;;;;;;;8.24;100.00;99704.41;5048986;28;20040;-63
2024/02/05 06:56:14;;;;;;;0.90;0.25;;;;;;;8.25;100.00;99706.97;5048454;28;20055;-63
2024/02/05 06:58:40;;;;;;;2.60;0.30;;;;;;;8.26;100.00;99702.41;5050838;28;20062;-62
2024/02/05 07:01:05;;;;;;;2.45;0.45;;;;;;;8.22;100.00;99711.81;5052241;28;20024;-63
2024/02/05 07:03:31;;;;;;;1.35;0.20;;;;;;;8.24;100.00;99715.19;5052810;28;20707;-63
2024/02/05 07:05:56;;;;;;;4.75;0.40;;;;;;;8.20;100.00;99713.81;5046054;28;20426;-63
2024/02/05 07:08:22;;;;;;;0.35;0.20;;;;;;;8.30;100.00;99709.13;5053534;28;20098;-63
2024/02/05 07:10:47;;;;;;;0.30;0.17;;;;;;;8.21;100.00;99700.19;5048455;28;20052;-63
2024/02/05 07:13:12;;;;;;;4.72;0.47;;;;;;;8.34;100.00;99713.19;5055039;28;20032;-63
2024/02/05 07:15:38;;;;;;;1.00;0.40;;;;;;;8.27;100.00;99704.06;5053787;28;20120;-63
2024/02/05 07:18:04;;;;;;;1.35;0.25;;;;;;;8.40;100.00;99711.72;5054664;28;20434;-64
2024/02/05 07:20:29;;;;;;;2.50;0.28;;;;;;;8.40;100.00;99709.84;5048930;28;20116;-63
2024/02/05 07:22:54;;;;;;;4.47;0.70;;;;;;;8.42;100.00;99707.00;5055225;28;20021;-64
2024/02/05 07:25:21;;;;;;;1.10;0.40;;;;;;;8.35;100.00;99704.09;5052525;28;20032;-63
2024/02/05 07:27:46;;;;;;;3.28;0.45;;;;;;;8.44;100.00;99707.69;5050089;28;21077;-63
2024/02/05 07:30:12;;;;;;;4.03;0.40;;;;;;;8.53;100.00;99706.66;5057379;28;20100;-63
2024/02/05 07:32:38;;;;;;;2.00;0.60;;;;;;;8.52;100.00;99710.38;5053581;28;20036;-63
2024/02/05 07:35:04;;;;;;;5.35;0.70;;;;;;;8.43;100.00;99717.59;5057948;28;20415;-63
2024/02/05 07:37:33;;;;;;;4.00;0.70;;;;;;;8.47;100.00;99720.81;5051469;28;20025;-63
2024/02/05 07:40:03;;;;;;;1.58;0.40;;;;;;;8.48;100.00;99717.09;5056398;28;20025;-64
2024/02/05 07:42:29;;;;;;;3.40;0.70;;;;;;;8.56;100.00;99717.94;5050459;28;20523;-64
2024/02/05 07:44:54;;;;;;;3.80;1.02;;;;;;;8.63;100.00;99720.81;5047543;28;20033;-64
2024/02/05 07:47:20;;;;;;;5.68;0.75;;;;;;;8.53;100.00;99720.16;5048427;28;20037;-63
2024/02/05 07:49:45;;;;;;;2.88;0.60;;;;;;;8.56;100.00;99715.25;5051703;28;20017;-63
2024/02/05 07:52:11;;;;;;;2.55;0.60;;;;;;;8.67;100.00;99715.94;5050224;28;20411;-63
2024/02/05 07:54:37;;;;;;;5.18;0.80;;;;;;;8.55;100.00;99718.97;5056479;28;20025;-63
2024/02/05 07:57:04;;;;;;;5.07;0.60;;;;;;;8.68;100.00;99723.88;5056873;28;20025;-63
2024/02/05 07:59:29;;;;;;;4.93;0.85;;;;;;;8.72;100.00;99722.53;5052567;28;20211;-64
2024/02/05 08:01:55;;;;;;;6.60;0.80;;;;;;;8.70;100.00;99721.84;5052095;28;21011;-63
2024/02/05 08:04:20;;;;;;;5.57;0.93;;;;;;;8.76;100.00;99723.03;5056007;28;20023;-64
2024/02/05 08:06:46;;;;;;;5.97;0.63;;;;;;;8.69;100.00;99713.91;5047865;28;20042;-63
2024/02/05 08:09:12;;;;;;;9.45;1.13;;;;;;;8.65;100.00;99728.75;5054803;28;20035;-63
2024/02/05 08:11:38;;;;;;;5.60;1.08;;;;;;;8.72;100.00;99716.25;5050040;28;20048;-63
2024/02/05 08:14:06;;;;;;;4.57;0.88;;;;;;;8.78;100.00;99724.53;5054700;28;20051;-63
2024/02/05 08:16:34;;;;;;;5.35;0.80;;;;;;;8.80;100.00;99720.81;5050616;28;20058;-63
2024/02/05 08:19:00;;;;;;;7.68;1.02;;;;;;;8.88;100.00;99724.38;5056227;28;20025;-63
2024/02/05 08:21:25;;;;;;;3.78;1.02;;;;;;;9.03;100.00;99716.41;5053919;28;20105;-63
2024/02/05 08:23:50;;;;;;;5.43;0.98;;;;;;;9.12;100.00;99719.97;5053451;28;20361;-64
2024/02/05 08:26:17;;;;;;;5.00;1.00;;;;;;;9.00;100.00;99725.69;5049682;28;20032;-63
2024/02/05 08:28:43;;;;;;;7.00;1.20;;;;;;;9.10;100.00;99721.97;5050089;28;20472;-63
2024/02/05 08:31:09;;;;;;;2.90;0.75;;;;;;;9.25;100.00;99730.19;5051408;28;20090;-63
2024/02/05 08:33:34;;;;;;;6.10;0.77;;;;;;;9.13;100.00;99733.28;5049542;28;20376;-64
2024/02/05 08:36:01;;;;;;;5.80;0.90;;;;;;;9.18;100.00;99728.19;5048539;28;20036;-63
2024/02/05 08:38:27;;;;;;;6.05;1.10;;;;;;;9.29;100.00;99705.38;5048208;28;20036;-63
2024/02/05 08:40:52;;;;;;;5.75;1.20;;;;;;;9.31;100.00;99729.53;5050578;28;20021;-63
2024/02/05 08:43:18;;;;;;;9.18;1.17;;;;;;;9.30;100.00;99717.91;5046905;28;20404;-64
2024/02/05 08:45:43;;;;;;;6.82;1.33;;;;;;;9.23;100.00;99714.19;5051978;28;20024;-63
2024/02/05 08:48:09;;;;;;;4.28;0.90;;;;;;;9.35;100.00;99710.13;5044813;28;20108;-64
2024/02/05 08:50:35;;;;;;;5.65;1.33;;;;;;;9.31;100.00;99714.16;5046429;28;20025;-64
2024/02/05 08:53:02;;;;;;;7.72;1.20;;;;;;;9.35;100.00;99699.31;5052243;28;20143;-64
2024/02/05 08:55:27;;;;;;;4.65;1.17;;;;;;;9.51;100.00;99719.16;5052213;28;20043;-64
2024/02/05 08:57:53;;;;;;;11.10;1.02;;;;;;;9.51;100.00;99708.34;5048017;28;20059;-64
2024/02/05 09:00:19;;;;;;;7.20;0.70;;;;;;;9.60;100.00;99718.13;5050421;28;20451;-64
2024/02/05 09:02:48;;;;;;;5.18;0.80;;;;;;;9.69;100.00;99717.06;5048960;28;20036;-63
2024/02/05 09:05:14;;;;;;;5.28;0.73;;;;;;;9.77;100.00;99716.19;5052578;28;20033;-65
2024/02/05 09:07:39;;;;;;;1.58;0.70;;;;;;;9.55;100.00;99726.75;5049784;28;20031;-64
2024/02/05 09:10:07;;;;;;;2.78;0.70;;;;;;;9.50;100.00;99709.38;5052418;28;20032;-64
2024/02/05 09:12:32;;;;;;;1.33;0.50;;;;;;;9.59;100.00;99716.47;5046059;28;20033;-63
2024/02/05 09:14:58;;;;;;;6.60;0.85;;;;;;;9.71;100.00;99706.94;5050035;28;20033;-65
2024/02/05 09:17:23;;;;;;;2.95;0.60;;;;;;;9.63;100.00;99704.28;5048959;28;20024;-64
2024/02/05 09:19:49;;;;;;;7.32;2.00;;;;;;;9.47;100.00;99707.88;5047978;28;20091;-64
2024/02/05 09:22:14;;;;;;;8.43;1.45;;;;;;;9.87;100.00;99687.94;5050428;28;20440;-64
2024/02/05 09:24:39;;;;;;;5.80;0.80;;;;;;;10.03;100.00;99702.38;5045234;28;20084;-65
2024/02/05 09:27:05;;;;;;;3.90;0.70;;;;;;;10.32;100.00;99701.72;5050676;28;20686;-64
2024/02/05 09:29:31;;;;;;;4.60;0.50;;;;;;;10.45;100.00;99695.72;5049142;28;20041;-65
2024/02/05 09:31:56;;;;;;;12.88;2.25;;;;;;;10.85;100.00;99705.38;5051746;28;20025;-65
2024/02/05 09:34:22;;;;;;;3.30;1.23;;;;;;;11.18;100.00;99700.47;5051208;28;20035;-65
2024/02/05 09:36:47;;;;;;;5.75;1.05;;;;;;;10.89;100.00;99703.13;5045905;28;20041;-65
2024/02/05 09:39:14;;;;;;;6.13;1.38;;;;;;;11.02;100.00;99689.81;5047928;28;20031;-64
2024/02/05 09:41:40;;;;;;;8.85;1.10;;;;;;;10.96;100.00;99688.69;5049313;28;20029;-64
2024/02/05 09:44:06;;;;;;;9.23;1.55;;;;;;;11.70;100.00;99678.88;5049412;28;20032;-63
2024/02/05 09:46:33;;;;;;;10.77;1.33;;;;;;;12.26;100.00;99682.72;5050729;28;20043;-63
2024/02/05 09:49:02;;;;;;;5.22;1.40;;;;;;;12.12;100.00;99694.44;5050875;28;20021;-64
2024/02/05 09:51:31;;;;;;;7.80;1.25;;;;;;;11.52;100.00;99693.66;5044109;28;20021;-62
2024/02/05 09:54:00;;;;;;;8.48;1.10;;;;;;;11.96;100.00;99690.09;5042184;28;20025;-63
2024/02/05 09:56:29;;;;;;;8.88;1.67;;;;;;;12.91;100.00;99693.53;5045900;28;20090;-63
2024/02/05 09:58:54;;;;;;;11.18;1.30;;;;;;;12.69;100.00;99690.00;5048155;28;20025;-64
2024/02/05 10:01:21;;;;;;;7.15;1.30;;;;;;;12.29;100.00;99695.06;5049799;28;20435;-63
2024/02/05 10:03:47;;;;;;;10.32;1.33;;;;;;;12.03;100.00;99688.28;5046635;28;20044;-63
2024/02/05 10:06:16;;;;;;;8.15;1.13;;;;;;;12.04;100.00;99683.72;5044803;28;20096;-62
2024/02/05 10:08:43;;;;;;;10.93;1.25;;;;;;;12.01;100.00;99698.50;5041217;28;20025;-62
2024/02/05 10:11:12;;;;;;;12.82;1.55;;;;;;;12.30;100.00;99685.03;5048952;28;20394;-63
2024/02/05 10:13:38;;;;;;;11.70;1.48;;;;;;;12.09;100.00;99694.81;5045874;28;20021;-63
2024/02/05 10:16:04;;;;;;;8.52;1.45;;;;;;;12.88;100.00;99704.78;5041384;28;20108;-62
2024/02/05 10:18:29;;;;;;;8.70;1.08;;;;;;;12.80;100.00;99694.91;5047603;28;20537;-63
2024/02/05 10:20:55;;;;;;;6.80;1.50;;;;;;;12.24;100.00;99692.06;5050209;28;20028;-63
2024/02/05 10:23:20;;;;;;;13.43;1.42;;;;;;;12.68;100.00;99675.59;5051075;28;20071;-63
2024/02/05 10:25:45;;;;;;;7.30;1.75;;;;;;;12.76;100.00;99680.06;5048723;28;21185;-63
2024/02/05 10:28:11;;;;;;;6.63;1.48;;;;;;;14.95;100.00;99673.84;5050883;28;20036;-64
2024/02/05 10:30:36;;;;;;;8.85;1.27;;;;;;;15.57;100.00;99661.56;5043811;28;20037;-63
2024/02/05 10:33:06;;;;;;;10.05;1.60;;;;;;;16.24;100.00;99667.59;5047924;28;20028;-63
2024/02/05 10:35:31;;;;;;;;;;;;;;;14.86;100.00;99675.97;5045838;28;20022;-62
2024/02/05 10:38:10;;;;;;;7.10;1.50;;;;;;;14.78;100.00;99663.38;5047574;28;19935;-62
2024/02/05 10:40:36;;;;;;;;;;;;;;;14.74;100.00;99672.19;5049547;28;20040;-63
2024/02/05 10:43:04;;;;;;;11.57;1.20;;;;;;;13.69;100.00;99656.19;5048771;28;19921;-62
2024/02/05 10:45:39;;;;;;;6.38;1.33;;;;;;;14.12;100.00;99657.81;5044018;28;20021;-63
2024/02/05 10:48:05;;;;;;;8.30;1.08;;;;;;;13.94;100.00;99656.53;5048015;28;20060;-62
2024/02/05 10:50:31;;;;;;;11.10;1.55;;;;;;;14.53;100.00;99654.16;5047963;28;20021;-63
2024/02/05 10:52:58;;;;;;;7.78;1.52;;;;;;;16.33;100.00;99635.41;5050608;28;20032;-63
2024/02/05 10:55:24;;;;;;;5.18;1.60;;;;;;;16.06;100.00;99649.22;5051538;28;20029;-63
2024/02/05 10:57:53;;;;;;;7.40;1.35;;;;;;;16.48;100.00;99629.63;5044972;28;20060;-63
2024/02/05 11:00:20;;;;;;;14.23;1.55;;;;;;;15.36;100.00;99643.59;5042582;28;20029;-63
2024/02/05 11:03:09;;;;;;;9.88;1.40;;;;;;;16.40;100.00;99636.19;5052481;28;20025;-55
2024/02/05 11:05:35;;;;;;;9.38;1.60;;;;;;;18.85;92.51;99619.84;5049587;28;20025;-56
2024/02/05 11:08:20;;;;;;;5.82;1.45;;;;;;;19.32;79.69;99617.94;5046572;28;20112;-62
2024/02/05 11:10:46;;;;;;;7.20;1.30;;;;;;;18.18;81.87;99613.50;5042082;28;20091;-63
2024/02/05 11:13:51;;;;;;;8.68;1.30;;;;;;;17.73;81.13;99616.59;5050485;28;20025;-63
2024/02/05 11:16:18;;;;;;;9.30;1.08;;;;;;;18.82;76.33;99605.53;5041097;28;20041;-62
2024/02/05 11:18:47;;;;;;;4.80;1.00;;;;;;;18.81;75.17;99611.25;5065529;23;20060;-69
2024/02/05 11:21:18;;;;;;;9.07;1.38;;;;;;;20.36;73.72;99573.88;5040229;28;20228;-68
2024/02/05 11:23:45;;;;;;;11.07;1.50;;;;;;;21.70;66.42;99584.94;5039970;28;20386;-69
2024/02/05 11:26:11;;;;;;;7.47;1.38;;;;;;;21.95;65.45;99583.56;5035940;28;20037;-69
2024/02/05 11:28:37;;;;;;;10.05;1.55;;;;;;;23.44;60.48;99588.38;5028337;28;20077;-69